createdAt,value
2022-12-11T00:02:22.893Z,-1.86
2022-12-11T00:10:49.776Z,-1.83
2022-12-11T00:19:13.348Z,-1.87
2022-12-11T00:27:36.179Z,-1.85
2022-12-11T00:35:59.217Z,-1.92
2022-12-11T00:44:22.103Z,-2.00
2022-12-11T00:52:44.979Z,-1.97
2022-12-11T01:01:11.370Z,-1.98
2022-12-11T01:09:54.448Z,-2.02
2022-12-11T01:18:17.257Z,-2.06
2022-12-11T01:26:40.057Z,-2.08
2022-12-11T01:35:05.309Z,-2.14
2022-12-11T01:43:28.391Z,-2.20
2022-12-11T01:51:58.109Z,-2.19
2022-12-11T02:00:21.657Z,-2.19
2022-12-11T02:08:44.496Z,-2.25
2022-12-11T02:17:12.242Z,-2.28
2022-12-11T02:25:57.000Z,-2.31
2022-12-11T02:34:25.655Z,-2.33
2022-12-11T02:42:51.772Z,-2.28
2022-12-11T02:51:18.911Z,-2.26
2022-12-11T02:59:44.460Z,-2.28
2022-12-11T03:08:07.482Z,-2.27
2022-12-11T03:16:37.806Z,-2.21
2022-12-11T03:25:32.533Z,-2.28
2022-12-11T03:34:01.657Z,-2.37
2022-12-11T03:42:26.907Z,-2.37
2022-12-11T03:50:51.458Z,-2.38
2022-12-11T03:59:14.503Z,-2.41
2022-12-11T04:07:37.717Z,-2.43
2022-12-11T04:16:00.560Z,-2.40
2022-12-11T04:24:23.381Z,-2.40
2022-12-11T04:32:46.290Z,-2.47
2022-12-11T04:41:12.891Z,-2.47
2022-12-11T04:49:35.717Z,-2.49
2022-12-11T04:57:58.555Z,-2.55
2022-12-11T05:06:22.373Z,-2.52
2022-12-11T05:14:46.240Z,-2.55
2022-12-11T05:23:09.101Z,-2.61
2022-12-11T05:31:32.018Z,-2.67
2022-12-11T05:39:54.856Z,-2.70
2022-12-11T05:48:17.790Z,-2.71
2022-12-11T05:56:40.843Z,-2.76
2022-12-11T06:05:04.035Z,-2.77
2022-12-11T06:13:27.288Z,-2.79
2022-12-11T06:21:50.241Z,-2.86
2022-12-11T06:30:13.416Z,-2.91
2022-12-11T06:38:37.151Z,-2.98
2022-12-11T06:47:00.008Z,-3.05
2022-12-11T06:55:23.103Z,-3.10
2022-12-11T07:03:46.392Z,-3.13
2022-12-11T07:12:09.556Z,-3.17
2022-12-11T07:20:32.381Z,-3.18
2022-12-11T07:28:59.499Z,-3.21
2022-12-11T07:37:22.308Z,-3.28
2022-12-11T07:45:45.294Z,-3.32
2022-12-11T07:54:15.024Z,-3.35
2022-12-11T08:02:38.303Z,-3.39
2022-12-11T08:11:02.819Z,-3.39
2022-12-11T08:19:25.833Z,-3.38
2022-12-11T08:27:48.631Z,-3.38
2022-12-11T08:36:14.041Z,-3.39
2022-12-11T08:44:37.021Z,-3.39
2022-12-11T08:52:59.869Z,-3.43
2022-12-11T09:01:26.186Z,-3.43
2022-12-11T09:09:49.092Z,-3.45
2022-12-11T09:18:11.949Z,-3.47
2022-12-11T09:26:34.945Z,-3.43
2022-12-11T09:34:57.805Z,-3.35
2022-12-11T09:43:46.022Z,-3.32
2022-12-11T09:52:20.476Z,-3.30
2022-12-11T10:00:55.056Z,-3.25
2022-12-11T10:09:30.802Z,-3.27
2022-12-11T10:18:02.983Z,-3.23
2022-12-11T10:26:28.956Z,-3.22
2022-12-11T10:35:01.234Z,-3.26
2022-12-11T10:43:53.358Z,-3.21
2022-12-11T10:52:24.425Z,-3.21
2022-12-11T11:00:59.808Z,-3.19
2022-12-11T11:09:36.192Z,-3.15
2022-12-11T11:18:15.446Z,-3.19
2022-12-11T11:27:11.797Z,-3.26
2022-12-11T11:35:26.858Z,-3.27
2022-12-11T11:43:57.975Z,-3.20
2022-12-11T11:52:45.572Z,-3.13
2022-12-11T12:01:18.062Z,-3.22
2022-12-11T12:09:50.168Z,-3.30
2022-12-11T12:18:36.586Z,-3.37
2022-12-11T12:27:36.059Z,-3.38
2022-12-11T12:36:11.237Z,-3.40
2022-12-11T12:44:46.470Z,-3.47
2022-12-11T12:53:18.492Z,-3.54
2022-12-11T13:01:52.447Z,-3.63
2022-12-11T13:10:34.455Z,-3.75
2022-12-11T13:18:57.459Z,-3.85
2022-12-11T13:27:24.937Z,-3.78
2022-12-11T13:35:48.432Z,-3.82
2022-12-11T13:44:20.164Z,-3.84
2022-12-11T13:52:53.853Z,-3.79
2022-12-11T14:01:31.264Z,-3.87
2022-12-11T14:10:00.587Z,-3.95
2022-12-11T14:18:27.559Z,-4.03
2022-12-11T14:26:53.689Z,-4.11
2022-12-11T14:35:41.731Z,-4.15
2022-12-11T14:44:07.869Z,-4.23
2022-12-11T14:52:38.815Z,-4.30
2022-12-11T15:01:05.183Z,-4.36
2022-12-11T15:09:40.781Z,-4.42
2022-12-11T15:18:13.437Z,-4.43
2022-12-11T15:26:39.893Z,-4.42
2022-12-11T15:35:23.236Z,-4.38
2022-12-11T15:43:47.251Z,-4.36
2022-12-11T15:52:10.082Z,-4.36
2022-12-11T16:00:33.657Z,-4.37
2022-12-11T16:08:56.618Z,-4.35
2022-12-11T16:17:19.977Z,-4.36
2022-12-11T16:25:44.309Z,-4.36
2022-12-11T16:34:07.216Z,-4.33
2022-12-11T16:42:30.236Z,-4.35
2022-12-11T16:50:54.603Z,-4.31
2022-12-11T16:59:17.679Z,-4.34
2022-12-11T17:07:40.607Z,-4.35
2022-12-11T17:16:23.577Z,-4.36
2022-12-11T17:24:47.197Z,-4.40
2022-12-11T17:33:11.729Z,-4.42
2022-12-11T17:41:34.614Z,-4.49
2022-12-11T17:49:57.727Z,-4.52
2022-12-11T17:58:24.225Z,-4.54
2022-12-11T18:06:47.121Z,-4.58
2022-12-11T18:15:10.963Z,-4.56
2022-12-11T18:23:34.598Z,-4.61
2022-12-11T18:31:57.546Z,-4.62
2022-12-11T18:40:20.431Z,-4.62
2022-12-11T18:48:45.116Z,-4.65
2022-12-11T18:57:08.131Z,-4.69
2022-12-11T19:05:31.572Z,-4.72
2022-12-11T19:13:57.063Z,-4.72
2022-12-11T19:22:20.853Z,-4.72
2022-12-11T19:30:46.824Z,-4.77
2022-12-11T19:39:13.174Z,-4.74
2022-12-11T19:47:36.572Z,-4.75
2022-12-11T19:55:59.557Z,-4.78
2022-12-11T20:04:22.485Z,-4.84
2022-12-11T20:12:45.498Z,-4.82
2022-12-11T20:21:11.900Z,-4.82
2022-12-11T20:29:35.122Z,-4.79
2022-12-11T20:37:58.352Z,-4.77
2022-12-11T20:46:26.670Z,-4.82
2022-12-11T20:54:49.711Z,-4.81
2022-12-11T21:03:12.824Z,-4.79
2022-12-11T21:11:35.979Z,-4.82
2022-12-11T21:19:58.894Z,-4.79
2022-12-11T21:28:21.943Z,-4.80
2022-12-11T21:36:47.492Z,-4.78
2022-12-11T21:45:52.277Z,-4.75
2022-12-11T21:53:55.335Z,-4.79
2022-12-11T22:02:18.432Z,-4.81
2022-12-11T22:10:41.473Z,-4.81
2022-12-11T22:19:04.571Z,-4.84
2022-12-11T22:27:27.512Z,-4.81
2022-12-11T22:35:57.604Z,-4.72
2022-12-11T22:44:21.849Z,-4.71
2022-12-11T22:52:45.481Z,-4.76
2022-12-11T23:01:18.250Z,-4.74
2022-12-11T23:09:41.773Z,-4.74
2022-12-11T23:18:04.718Z,-4.79
2022-12-11T23:26:28.451Z,-4.73
2022-12-11T23:34:51.326Z,-4.72
2022-12-11T23:43:14.327Z,-4.76
2022-12-11T23:51:37.259Z,-4.72
